createdAt,value
2019-02-04T00:00:47.816Z,11.23
2019-02-04T00:05:52.750Z,8.87
2019-02-04T00:10:59.325Z,10.60
2019-02-04T00:16:04.468Z,11.20
2019-02-04T00:21:09.403Z,10.63
2019-02-04T00:26:14.452Z,12.07
2019-02-04T00:31:19.227Z,9.57
2019-02-04T00:36:23.918Z,11.40
2019-02-04T00:41:28.608Z,12.87
2019-02-04T00:46:33.653Z,11.53
2019-02-04T00:51:38.676Z,9.40
2019-02-04T00:56:43.433Z,12.87
2019-02-04T01:01:48.188Z,12.87
2019-02-04T01:06:53.015Z,11.70
2019-02-04T01:11:58.683Z,14.77
2019-02-04T01:17:03.886Z,14.07
2019-02-04T01:22:08.695Z,13.27
2019-02-04T01:27:13.409Z,13.15
2019-02-04T01:32:18.385Z,16.90
2019-02-04T01:37:23.197Z,13.77
2019-02-04T01:42:27.891Z,18.40
2019-02-04T01:47:32.662Z,17.23
2019-02-04T01:52:37.411Z,16.50
2019-02-04T01:57:42.225Z,18.23
2019-02-04T02:02:46.917Z,16.00
2019-02-04T02:07:52.364Z,16.93
2019-02-04T02:12:57.309Z,18.37
2019-02-04T02:18:02.083Z,20.23
2019-02-04T02:23:06.868Z,20.23
2019-02-04T02:28:11.584Z,17.17
2019-02-04T02:38:30.692Z,19.17
2019-02-04T02:43:35.526Z,16.07
2019-02-04T02:48:40.211Z,17.03
2019-02-04T02:53:45.884Z,18.13
2019-02-04T02:58:50.787Z,21.23
2019-02-04T03:03:55.842Z,22.33
2019-02-04T03:09:00.646Z,20.57
2019-02-04T03:14:06.434Z,19.47
2019-02-04T03:19:11.152Z,23.35
2019-02-04T03:24:15.830Z,22.57
2019-02-04T03:29:20.589Z,16.27
2019-02-04T03:34:46.787Z,17.25
2019-02-04T03:39:51.913Z,18.23
2019-02-04T03:44:56.756Z,18.70
2019-02-04T03:50:01.913Z,16.87
2019-02-04T03:55:08.305Z,16.63
2019-02-04T04:00:18.370Z,17.13
2019-02-04T04:05:23.299Z,21.40
2019-02-04T04:10:28.139Z,16.83
2019-02-04T04:15:33.217Z,21.83
2019-02-04T04:20:38.436Z,18.10
2019-02-04T04:25:43.175Z,18.53
2019-02-04T04:30:48.023Z,19.03
2019-02-04T04:35:52.733Z,18.87
2019-02-04T04:40:57.407Z,17.73
2019-02-04T04:46:02.087Z,21.60
2019-02-04T04:51:06.751Z,13.03
2019-02-04T04:56:11.740Z,14.05
2019-02-04T05:01:16.563Z,16.30
2019-02-04T05:06:21.236Z,17.05
2019-02-04T05:11:25.920Z,18.03
2019-02-04T05:16:30.716Z,15.07
2019-02-04T05:21:35.483Z,15.03
2019-02-04T05:26:40.221Z,17.00
2019-02-04T05:31:44.924Z,16.77
2019-02-04T05:36:49.608Z,20.43
2019-02-04T05:41:54.585Z,17.67
2019-02-04T05:46:59.369Z,17.97
2019-02-04T05:52:04.261Z,17.00
2019-02-04T05:57:08.992Z,13.43
2019-02-04T06:02:13.850Z,15.97
2019-02-04T06:07:18.623Z,13.72
2019-02-04T06:12:23.383Z,17.77
2019-02-04T06:17:28.464Z,17.67
2019-02-04T06:22:33.227Z,17.10
2019-02-04T06:27:38.092Z,14.77
2019-02-04T06:32:43.012Z,17.73
2019-02-04T06:37:47.313Z,17.73
2019-02-04T06:42:52.486Z,16.53
2019-02-04T06:47:57.227Z,18.93
2019-02-04T06:53:02.082Z,18.43
2019-02-04T06:58:07.122Z,19.17
2019-02-04T07:03:11.841Z,16.83
2019-02-04T07:08:16.859Z,15.83
2019-02-04T07:13:21.539Z,16.30
2019-02-04T07:18:26.231Z,22.47
2019-02-04T07:23:30.915Z,18.37
2019-02-04T07:28:35.978Z,24.43
2019-02-04T07:33:40.752Z,23.33
2019-02-04T07:38:45.431Z,28.53
2019-02-04T07:43:50.412Z,20.30
2019-02-04T07:48:55.117Z,21.90
2019-02-04T07:53:59.759Z,21.63
2019-02-04T07:59:04.548Z,26.15
2019-02-04T08:04:09.577Z,22.63
2019-02-04T08:09:14.620Z,19.25
2019-02-04T08:14:19.813Z,21.93
2019-02-04T08:19:24.588Z,22.40
2019-02-04T08:24:29.372Z,23.77
2019-02-04T08:29:34.281Z,20.50
2019-02-04T08:34:39.050Z,22.60
2019-02-04T08:39:44.780Z,19.40
2019-02-04T08:44:49.546Z,22.77
2019-02-04T08:49:58.516Z,23.80
2019-02-04T08:55:01.020Z,20.17
2019-02-04T09:00:06.548Z,24.87
2019-02-04T09:05:12.590Z,18.73
2019-02-04T09:10:23.853Z,19.70
2019-02-04T09:15:29.184Z,22.03
2019-02-04T09:20:33.976Z,25.80
2019-02-04T09:25:38.801Z,23.03
2019-02-04T09:30:43.892Z,19.20
2019-02-04T09:35:48.663Z,20.57
2019-02-04T09:40:53.569Z,19.73
2019-02-04T09:45:58.340Z,18.20
2019-02-04T09:51:03.497Z,14.97
2019-02-04T09:56:08.784Z,14.45
2019-02-04T10:01:13.677Z,15.90
2019-02-04T10:06:18.544Z,16.90
2019-02-04T10:11:23.789Z,18.80
2019-02-04T10:16:28.878Z,17.20
2019-02-04T10:21:33.636Z,12.60
2019-02-04T10:26:38.777Z,15.20
2019-02-04T10:31:43.536Z,12.53
2019-02-04T10:36:48.347Z,21.07
2019-02-04T10:41:53.208Z,13.10
2019-02-04T10:46:57.954Z,13.33
2019-02-04T10:52:02.736Z,13.80
2019-02-04T10:57:07.443Z,11.37
2019-02-04T11:02:12.721Z,13.20
2019-02-04T11:07:17.534Z,8.58
2019-02-04T11:12:23.243Z,7.10
2019-02-04T11:17:28.222Z,8.33
2019-02-04T11:22:33.002Z,8.07
2019-02-04T11:27:37.987Z,12.87
2019-02-04T11:32:42.820Z,7.67
2019-02-04T11:37:48.134Z,7.63
2019-02-04T11:42:52.982Z,6.40
2019-02-04T11:47:57.879Z,9.47
2019-02-04T11:53:02.728Z,6.83
2019-02-04T11:58:08.400Z,5.20
2019-02-04T12:03:14.950Z,6.27
2019-02-04T12:08:20.214Z,6.37
2019-02-04T12:13:25.096Z,5.33
2019-02-04T12:18:29.994Z,4.70
2019-02-04T12:23:34.940Z,7.30
2019-02-04T12:28:39.896Z,4.93
2019-02-04T12:33:44.773Z,6.47
2019-02-04T12:38:49.756Z,7.13
2019-02-04T12:43:54.571Z,6.20
2019-02-04T12:48:59.445Z,6.20
2019-02-04T12:54:04.457Z,5.53
2019-02-04T12:59:09.355Z,5.20
2019-02-04T13:04:14.037Z,6.87
2019-02-04T13:09:18.855Z,7.13
2019-02-04T13:14:23.815Z,4.63
2019-02-04T13:19:28.807Z,5.10
2019-02-04T13:24:33.569Z,7.83
2019-02-04T13:29:38.381Z,5.77
2019-02-04T13:34:43.631Z,4.73
2019-02-04T13:39:48.427Z,7.33
2019-02-04T13:44:53.588Z,9.00
2019-02-04T13:49:58.275Z,7.57
2019-02-04T13:55:03.132Z,10.23
2019-02-04T14:00:11.484Z,7.80
2019-02-04T14:05:16.598Z,10.70
2019-02-04T14:10:35.614Z,11.07
2019-02-04T14:15:41.168Z,13.53
2019-02-04T14:20:45.982Z,12.03
2019-02-04T14:25:50.787Z,13.50
2019-02-04T14:30:55.671Z,12.37
2019-02-04T14:36:00.423Z,11.97
2019-02-04T14:41:05.311Z,11.70
2019-02-04T14:47:03.473Z,12.65
2019-02-04T14:52:46.854Z,16.50
2019-02-04T14:58:21.660Z,16.20
2019-02-04T15:03:38.548Z,17.30
2019-02-04T15:09:01.951Z,15.10
2019-02-04T15:14:55.146Z,13.50
2019-02-04T15:20:40.450Z,16.77
2019-02-04T15:26:28.498Z,14.93
2019-02-04T15:32:22.531Z,16.10
2019-02-04T15:38:13.307Z,14.13
2019-02-04T15:44:10.496Z,14.37
2019-02-04T15:49:54.652Z,14.47
2019-02-04T15:54:59.346Z,16.03
2019-02-04T16:00:05.482Z,19.53
2019-02-04T16:05:10.683Z,19.83
2019-02-04T16:10:17.341Z,17.13
2019-02-04T16:15:22.239Z,22.62
2019-02-04T16:20:27.111Z,19.37
2019-02-04T16:25:32.045Z,18.10
2019-02-04T16:30:36.878Z,19.47
2019-02-04T16:35:41.548Z,18.73
2019-02-04T16:40:46.314Z,18.80
2019-02-04T16:45:51.525Z,18.27
2019-02-04T16:51:03.542Z,16.07
2019-02-04T16:56:03.090Z,17.37
2019-02-04T17:01:08.359Z,22.63
2019-02-04T17:06:13.487Z,16.53
2019-02-04T17:11:18.261Z,23.10
2019-02-04T17:16:23.079Z,20.33
2019-02-04T17:21:28.247Z,20.23
2019-02-04T17:26:32.954Z,16.90
2019-02-04T17:31:37.776Z,17.57
2019-02-04T17:36:42.614Z,22.63
2019-02-04T17:41:47.554Z,18.90
2019-02-04T17:46:52.342Z,19.27
2019-02-04T17:51:57.104Z,20.40
2019-02-04T17:57:02.312Z,17.87
2019-02-04T18:02:07.279Z,16.30
2019-02-04T18:07:12.232Z,19.75
2019-02-04T18:12:16.980Z,18.85
2019-02-04T18:17:21.730Z,18.02
2019-02-04T18:22:26.500Z,18.40
2019-02-04T18:27:31.225Z,18.53
2019-02-04T18:32:36.014Z,17.13
2019-02-04T18:37:41.206Z,18.27
2019-02-04T18:42:46.209Z,21.53
2019-02-04T18:47:51.436Z,16.33
2019-02-04T18:52:57.437Z,18.67
2019-02-04T18:58:02.280Z,17.73
2019-02-04T19:03:16.877Z,20.37
2019-02-04T19:08:14.536Z,21.27
2019-02-04T19:13:19.363Z,17.43
2019-02-04T19:18:24.037Z,18.17
2019-02-04T19:23:28.739Z,16.63
2019-02-04T19:28:33.515Z,18.83
2019-02-04T19:33:39.226Z,18.40
2019-02-04T19:38:43.937Z,17.20
2019-02-04T19:43:48.687Z,17.87
2019-02-04T19:48:53.391Z,19.57
2019-02-04T19:53:58.207Z,17.27
2019-02-04T19:59:03.217Z,17.00
2019-02-04T20:04:08.535Z,15.17
2019-02-04T20:09:13.565Z,20.02
2019-02-04T20:14:18.377Z,18.70
2019-02-04T20:19:23.194Z,15.10
2019-02-04T20:24:33.304Z,15.07
2019-02-04T20:29:34.376Z,19.43
2019-02-04T20:34:40.426Z,17.47
2019-02-04T20:39:45.223Z,17.93
2019-02-04T20:44:50.174Z,15.23
2019-02-04T20:49:55.929Z,16.40
2019-02-04T20:55:00.702Z,17.43
2019-02-04T21:00:09.291Z,18.00
2019-02-04T21:05:15.280Z,20.03
2019-02-04T21:10:21.510Z,20.48
2019-02-04T21:15:26.429Z,18.20
2019-02-04T21:20:31.316Z,17.70
2019-02-04T21:25:36.181Z,16.33
2019-02-04T21:30:42.802Z,15.13
2019-02-04T21:35:47.647Z,17.73
2019-02-04T21:40:52.628Z,16.37
2019-02-04T21:45:57.408Z,15.67
2019-02-04T21:51:02.194Z,16.90
2019-02-04T21:56:06.946Z,16.00
2019-02-04T22:01:11.717Z,12.70
2019-02-04T22:06:16.454Z,13.35
2019-02-04T22:11:21.728Z,10.97
2019-02-04T22:16:26.477Z,12.87
2019-02-04T22:21:31.816Z,14.07
2019-02-04T22:26:37.324Z,14.37
2019-02-04T22:31:42.365Z,12.83
2019-02-04T22:36:47.367Z,13.60
2019-02-04T22:41:52.176Z,14.20
2019-02-04T22:46:56.909Z,15.87
2019-02-04T22:52:01.655Z,9.50
2019-02-04T22:57:06.704Z,12.27
2019-02-04T23:02:11.680Z,13.35
2019-02-04T23:07:16.481Z,12.55
2019-02-04T23:12:22.223Z,11.65
2019-02-04T23:17:26.917Z,17.87
2019-02-04T23:22:31.691Z,11.07
2019-02-04T23:27:36.883Z,13.07
2019-02-04T23:32:41.866Z,12.13
2019-02-04T23:37:46.671Z,13.30
2019-02-04T23:42:51.381Z,13.10
2019-02-04T23:47:56.124Z,13.83
2019-02-04T23:53:00.958Z,12.97
2019-02-04T23:58:09.288Z,9.87
